createdAt,value
2022-11-13T00:00:26.267Z,101270.63
2022-11-13T00:03:12.460Z,101266.91
2022-11-13T00:06:01.229Z,101279.34
2022-11-13T00:08:48.342Z,101256.25
2022-11-13T00:11:34.228Z,101271.66
2022-11-13T00:14:20.822Z,101158.22
2022-11-13T00:17:07.238Z,101250.50
2022-11-13T00:19:53.757Z,101247.22
2022-11-13T00:22:40.195Z,101253.13
2022-11-13T00:25:27.595Z,101251.50
2022-11-13T00:28:14.598Z,101208.69
2022-11-13T00:31:02.477Z,101196.09
2022-11-13T00:36:56.162Z,101206.41
2022-11-13T00:39:42.309Z,101256.16
2022-11-13T00:42:29.550Z,101203.75
2022-11-13T00:45:16.080Z,101250.72
2022-11-13T00:48:02.390Z,101232.81
2022-11-13T00:50:48.556Z,101250.44
2022-11-13T00:53:35.139Z,101218.91
2022-11-13T00:56:22.004Z,101216.78
2022-11-13T00:59:08.213Z,101234.09
2022-11-13T01:01:56.447Z,101249.91
2022-11-13T01:04:43.233Z,101255.38
2022-11-13T01:07:29.663Z,101239.09
2022-11-13T01:10:15.989Z,101252.13
2022-11-13T01:13:02.360Z,101245.03
2022-11-13T01:15:48.906Z,101245.56
2022-11-13T01:18:35.830Z,101239.56
2022-11-13T01:21:25.362Z,101208.06
2022-11-13T01:24:11.818Z,101238.16
2022-11-13T01:26:58.312Z,101216.06
2022-11-13T01:29:44.926Z,101223.25
2022-11-13T01:32:31.115Z,101225.38
2022-11-13T01:35:17.076Z,101229.09
2022-11-13T01:38:03.504Z,101198.47
2022-11-13T01:40:49.963Z,101225.53
2022-11-13T01:43:38.417Z,101184.53
2022-11-13T01:46:46.147Z,101209.50
2022-11-13T01:49:36.983Z,101223.09
2022-11-13T01:52:27.525Z,101195.66
2022-11-13T01:55:19.023Z,101193.81
2022-11-13T01:58:07.997Z,101174.81
2022-11-13T02:00:54.479Z,101212.81
2022-11-13T02:03:40.638Z,101186.47
2022-11-13T02:06:31.000Z,101201.09
2022-11-13T02:09:20.721Z,101209.69
2022-11-13T02:12:12.780Z,101209.31
2022-11-13T02:15:01.127Z,101208.50
2022-11-13T02:17:56.682Z,101156.38
2022-11-13T02:21:01.906Z,101199.22
2022-11-13T02:24:15.865Z,101204.69
2022-11-13T02:27:08.945Z,101195.94
2022-11-13T02:29:55.269Z,101168.78
2022-11-13T02:32:46.694Z,101183.72
2022-11-13T02:35:35.841Z,101190.25
2022-11-13T02:38:22.488Z,101155.50
2022-11-13T02:41:08.941Z,101158.97
2022-11-13T02:43:54.926Z,101172.53
2022-11-13T02:46:41.238Z,101160.38
2022-11-13T02:49:27.801Z,101132.69
2022-11-13T02:52:14.197Z,101151.94
2022-11-13T02:55:00.278Z,101137.03
2022-11-13T02:57:46.781Z,101167.13
2022-11-13T03:00:33.025Z,101150.84
2022-11-13T03:03:47.834Z,101160.03
2022-11-13T03:06:25.520Z,101163.88
2022-11-13T03:09:11.854Z,101100.84
2022-11-13T03:11:57.921Z,101101.88
2022-11-13T03:14:44.023Z,101151.59
2022-11-13T03:17:35.149Z,101112.75
2022-11-13T03:20:21.371Z,101136.38
2022-11-13T03:23:08.186Z,101114.31
2022-11-13T03:25:54.618Z,101129.81
2022-11-13T03:28:40.653Z,101133.28
2022-11-13T03:31:26.720Z,101118.34
2022-11-13T03:34:13.080Z,101109.63
2022-11-13T03:36:59.721Z,101122.34
2022-11-13T03:39:45.952Z,101124.63
2022-11-13T03:42:32.106Z,101136.59
2022-11-13T03:45:18.031Z,101119.22
2022-11-13T03:48:04.724Z,101108.41
2022-11-13T03:50:54.838Z,101122.72
2022-11-13T03:53:41.362Z,101118.06
2022-11-13T03:56:27.424Z,101115.84
2022-11-13T03:59:13.643Z,101125.16
2022-11-13T04:02:02.417Z,101093.63
2022-11-13T04:04:48.775Z,101091.44
2022-11-13T04:07:35.338Z,101101.75
2022-11-13T04:10:22.164Z,101118.06
2022-11-13T04:13:08.933Z,101110.53
2022-11-13T04:15:55.245Z,101095.66
2022-11-13T04:18:41.492Z,101027.56
2022-11-13T04:21:27.970Z,101099.91
2022-11-13T04:24:14.349Z,101071.16
2022-11-13T04:27:00.786Z,101098.50
2022-11-13T04:29:47.151Z,101093.63
2022-11-13T04:32:33.643Z,101106.69
2022-11-13T04:35:19.734Z,101105.28
2022-11-13T04:38:06.345Z,101105.03
2022-11-13T04:41:12.555Z,101080.97
2022-11-13T04:43:59.147Z,101041.63
2022-11-13T04:46:45.577Z,101044.94
2022-11-13T04:49:32.172Z,101088.22
2022-11-13T04:52:18.643Z,101083.91
2022-11-13T04:55:05.526Z,101091.56
2022-11-13T04:57:55.995Z,101081.16
2022-11-13T05:00:42.382Z,101061.91
2022-11-13T05:03:28.807Z,101062.72
2022-11-13T05:06:15.247Z,101071.31
2022-11-13T05:09:03.203Z,101049.31
2022-11-13T05:11:49.016Z,101057.09
2022-11-13T05:14:36.761Z,101042.16
2022-11-13T05:17:23.400Z,101031.59
2022-11-13T05:20:10.309Z,101048.88
2022-11-13T05:22:56.659Z,101059.50
2022-11-13T05:25:43.134Z,100992.09
2022-11-13T05:28:30.000Z,100984.19
2022-11-13T05:31:16.987Z,101065.28
2022-11-13T05:34:06.175Z,100974.47
2022-11-13T05:36:52.395Z,101050.63
2022-11-13T05:39:38.517Z,101043.31
2022-11-13T05:42:25.637Z,101008.75
2022-11-13T05:45:11.926Z,101018.81
2022-11-13T05:47:58.243Z,101034.22
2022-11-13T05:50:44.512Z,101013.06
2022-11-13T05:53:31.129Z,100995.94
2022-11-13T05:56:26.467Z,101017.38
2022-11-13T05:59:12.871Z,100992.97
2022-11-13T06:01:59.317Z,101030.88
2022-11-13T06:04:45.573Z,101039.88
2022-11-13T06:07:31.959Z,101040.19
2022-11-13T06:10:18.133Z,101036.34
2022-11-13T06:13:04.253Z,101044.03
2022-11-13T06:15:50.649Z,101010.34
2022-11-13T06:18:38.500Z,101027.63
2022-11-13T06:21:26.511Z,101034.25
2022-11-13T06:24:13.473Z,101004.19
2022-11-13T06:27:00.994Z,101020.22
2022-11-13T06:29:47.242Z,100980.56
2022-11-13T06:32:33.982Z,101029.31
2022-11-13T06:35:20.411Z,100974.00
2022-11-13T06:38:14.433Z,101009.69
2022-11-13T06:41:01.662Z,101012.88
2022-11-13T06:43:49.173Z,100967.66
2022-11-13T06:46:35.611Z,101008.88
2022-11-13T06:49:21.810Z,100999.88
2022-11-13T06:52:07.987Z,100929.47
2022-11-13T06:54:54.271Z,101014.38
2022-11-13T06:57:40.266Z,101002.78
2022-11-13T07:00:26.730Z,100970.03
2022-11-13T07:03:17.397Z,101005.50
2022-11-13T07:06:06.348Z,100932.03
2022-11-13T07:08:53.041Z,101005.38
2022-11-13T07:11:39.482Z,100996.16
2022-11-13T07:14:26.635Z,100971.84
2022-11-13T07:17:12.967Z,100993.75
2022-11-13T07:19:59.212Z,100999.88
2022-11-13T07:22:45.417Z,101017.03
2022-11-13T07:25:32.257Z,100967.94
2022-11-13T07:28:18.932Z,101007.81
2022-11-13T07:31:07.446Z,100996.16
2022-11-13T07:33:53.865Z,101013.47
2022-11-13T07:36:40.028Z,101018.69
2022-11-13T07:39:26.080Z,100999.19
2022-11-13T07:42:12.835Z,101029.84
2022-11-13T07:44:59.417Z,101015.28
2022-11-13T07:47:45.836Z,101041.84
2022-11-13T07:50:34.732Z,101043.78
2022-11-13T07:53:22.048Z,101050.06
2022-11-13T07:56:08.403Z,101052.34
2022-11-13T07:58:54.464Z,100975.84
2022-11-13T08:01:40.965Z,101020.78
2022-11-13T08:04:27.384Z,101037.63
2022-11-13T08:07:14.085Z,101045.31
2022-11-13T08:10:00.415Z,101058.25
2022-11-13T08:12:47.506Z,100996.41
2022-11-13T08:15:34.499Z,101057.59
2022-11-13T08:18:22.165Z,101070.44
2022-11-13T08:21:14.531Z,101062.19
2022-11-13T08:24:01.150Z,101050.31
2022-11-13T08:26:47.603Z,101062.41
2022-11-13T08:29:34.119Z,101063.47
2022-11-13T08:32:22.831Z,101063.16
2022-11-13T08:35:09.420Z,101037.16
2022-11-13T08:38:01.234Z,101027.63
2022-11-13T08:40:48.135Z,101064.44
2022-11-13T08:43:34.937Z,101024.56
2022-11-13T08:46:21.013Z,101044.94
2022-11-13T08:49:07.797Z,101037.25
2022-11-13T08:51:54.106Z,101062.28
2022-11-13T08:54:42.681Z,101029.22
2022-11-13T08:57:31.609Z,100974.84
2022-11-13T09:00:18.143Z,100979.94
2022-11-13T09:03:04.480Z,101060.16
2022-11-13T09:05:50.818Z,101018.56
2022-11-13T09:08:38.944Z,101048.84
2022-11-13T09:11:28.866Z,101018.41
2022-11-13T09:14:15.548Z,101042.22
2022-11-13T09:17:01.956Z,101012.88
2022-11-13T09:19:48.109Z,101020.47
2022-11-13T09:22:35.547Z,101040.13
2022-11-13T09:25:23.785Z,101039.25
2022-11-13T09:28:11.720Z,101006.78
2022-11-13T09:30:58.426Z,100979.28
2022-11-13T09:33:44.655Z,101009.44
2022-11-13T09:36:31.870Z,101027.94
2022-11-13T09:39:18.116Z,101044.03
2022-11-13T09:42:10.466Z,101050.63
2022-11-13T09:45:03.781Z,100993.28
2022-11-13T09:47:52.752Z,101054.44
2022-11-13T09:50:40.597Z,101050.59
2022-11-13T09:53:33.932Z,101029.69
2022-11-13T09:56:38.861Z,101047.69
2022-11-13T09:59:31.640Z,101042.13
2022-11-13T10:02:27.812Z,101045.19
2022-11-13T10:05:23.963Z,101012.91
2022-11-13T10:08:38.585Z,101038.50
2022-11-13T10:11:42.324Z,101053.28
2022-11-13T10:14:34.552Z,101018.00
2022-11-13T10:17:44.584Z,101048.31
2022-11-13T10:20:43.789Z,101038.19
2022-11-13T10:23:35.374Z,101029.22
2022-11-13T10:26:24.730Z,100983.97
2022-11-13T10:29:18.018Z,101018.41
2022-11-13T10:32:20.895Z,101034.16
2022-11-13T10:35:08.362Z,101043.16
2022-11-13T10:38:07.792Z,101019.44
2022-11-13T10:41:07.018Z,101027.56
2022-11-13T10:43:59.683Z,101024.03
2022-11-13T10:46:46.035Z,101016.75
2022-11-13T10:49:32.094Z,100976.41
2022-11-13T10:52:23.697Z,100991.88
2022-11-13T10:55:40.582Z,101005.56
2022-11-13T10:58:27.776Z,100992.47
2022-11-13T11:01:16.372Z,100961.66
2022-11-13T11:04:27.646Z,100989.97
2022-11-13T11:07:23.339Z,100956.28
2022-11-13T11:10:21.932Z,100983.69
2022-11-13T11:13:20.580Z,100937.94
2022-11-13T11:16:09.455Z,100959.03
2022-11-13T11:19:00.354Z,100950.09
2022-11-13T11:21:50.333Z,100940.09
2022-11-13T11:24:56.815Z,100931.25
2022-11-13T11:28:28.461Z,100947.97
2022-11-13T11:31:30.628Z,100944.66
2022-11-13T11:34:46.040Z,100892.13
2022-11-13T11:37:42.182Z,100911.59
2022-11-13T11:40:36.385Z,100879.66
2022-11-13T11:43:42.004Z,100923.34
2022-11-13T11:46:29.793Z,100904.91
2022-11-13T11:49:16.884Z,100908.16
2022-11-13T11:52:32.617Z,100882.81
2022-11-13T11:55:24.915Z,100909.78
2022-11-13T11:58:36.842Z,100904.31
2022-11-13T12:01:42.862Z,100907.56
2022-11-13T12:04:51.225Z,100902.06
2022-11-13T12:07:55.919Z,100905.31
2022-11-13T12:11:11.841Z,100895.59
2022-11-13T12:14:13.554Z,100888.19
2022-11-13T12:17:16.791Z,100880.78
2022-11-13T12:20:28.072Z,100879.06
2022-11-13T12:23:44.736Z,100879.38
2022-11-13T12:26:40.123Z,100859.91
2022-11-13T12:29:48.381Z,100868.84
2022-11-13T12:32:50.308Z,100855.47
2022-11-13T12:35:38.362Z,100836.00
2022-11-13T12:38:33.961Z,100850.00
2022-11-13T12:41:38.636Z,100838.75
2022-11-13T12:44:30.930Z,100835.19
2022-11-13T12:47:17.978Z,100836.31
2022-11-13T12:50:22.934Z,100824.84
2022-11-13T12:53:13.502Z,100828.59
2022-11-13T12:56:04.022Z,100813.09
2022-11-13T12:59:29.254Z,100795.47
2022-11-13T13:02:29.835Z,100812.69
2022-11-13T13:05:53.536Z,100811.88
2022-11-13T13:08:42.863Z,100812.50
2022-11-13T13:11:49.946Z,100779.19
2022-11-13T13:14:54.430Z,100813.50
2022-11-13T13:17:41.258Z,100811.06
2022-11-13T13:20:41.209Z,100803.97
2022-11-13T13:23:33.642Z,100804.47
2022-11-13T13:26:28.232Z,100807.22
2022-11-13T13:29:23.792Z,100803.34
2022-11-13T13:32:43.169Z,100782.31
2022-11-13T13:35:48.193Z,100799.13
2022-11-13T13:39:02.179Z,100797.50
2022-11-13T13:42:07.102Z,100790.72
2022-11-13T13:45:11.575Z,100794.88
2022-11-13T13:47:58.869Z,100796.31
2022-11-13T13:50:47.547Z,100790.84
2022-11-13T13:53:36.799Z,100753.47
2022-11-13T13:56:24.279Z,100791.03
2022-11-13T13:59:15.813Z,100784.75
2022-11-13T14:02:03.570Z,100777.03
2022-11-13T14:04:55.465Z,100794.75
2022-11-13T14:07:46.384Z,100790.13
2022-11-13T14:10:32.690Z,100738.56
2022-11-13T14:13:28.702Z,100757.63
2022-11-13T14:16:15.511Z,100735.84
2022-11-13T14:19:05.721Z,100801.47
2022-11-13T14:22:05.037Z,100784.44
2022-11-13T14:24:55.779Z,100804.22
2022-11-13T14:27:41.876Z,100781.53
2022-11-13T14:30:30.644Z,100804.81
2022-11-13T14:33:22.761Z,100805.72
2022-11-13T14:36:09.357Z,100808.16
2022-11-13T14:38:56.799Z,100764.44
2022-11-13T14:42:41.596Z,100805.81
2022-11-13T14:45:30.302Z,100817.38
2022-11-13T14:48:29.033Z,100807.25
2022-11-13T14:51:30.103Z,100786.81
2022-11-13T14:55:00.001Z,100818.59
2022-11-13T14:57:49.058Z,100817.97
2022-11-13T15:00:39.284Z,100791.97
2022-11-13T15:03:26.399Z,100796.53
2022-11-13T15:06:17.429Z,100808.97
2022-11-13T15:09:06.968Z,100795.31
2022-11-13T15:11:53.227Z,100806.44
2022-11-13T15:14:41.715Z,100795.34
2022-11-13T15:17:28.029Z,100774.41
2022-11-13T15:20:24.172Z,100789.50
2022-11-13T15:23:15.538Z,100792.72
2022-11-13T15:26:01.841Z,100792.84
2022-11-13T15:28:49.036Z,100809.34
2022-11-13T15:31:37.781Z,100800.75
2022-11-13T15:34:24.281Z,100808.94
2022-11-13T15:37:16.181Z,100786.97
2022-11-13T15:40:02.811Z,100823.66
2022-11-13T15:42:49.092Z,100814.28
2022-11-13T15:45:38.661Z,100821.09
2022-11-13T15:48:27.363Z,100824.63
2022-11-13T15:51:46.596Z,100831.13
2022-11-13T15:54:36.990Z,100837.13
2022-11-13T15:57:28.703Z,100826.88
2022-11-13T16:00:17.402Z,100833.28
2022-11-13T16:03:11.305Z,100806.91
2022-11-13T16:05:59.736Z,100823.34
2022-11-13T16:08:50.869Z,100834.03
2022-11-13T16:11:37.005Z,100832.63
2022-11-13T16:14:25.041Z,100835.56
2022-11-13T16:17:20.393Z,100826.97
2022-11-13T16:20:10.418Z,100844.41
2022-11-13T16:22:56.693Z,100806.78
2022-11-13T16:25:43.978Z,100846.03
2022-11-13T16:28:31.696Z,100790.16
2022-11-13T16:31:24.781Z,100832.53
2022-11-13T16:34:10.920Z,100847.47
2022-11-13T16:36:57.823Z,100794.44
2022-11-13T16:39:45.247Z,100836.59
2022-11-13T16:42:32.202Z,100848.94
2022-11-13T16:45:19.552Z,100758.66
2022-11-13T16:48:12.087Z,100853.09
2022-11-13T16:50:58.232Z,100846.41
2022-11-13T16:53:44.845Z,100862.09
2022-11-13T16:56:31.265Z,100846.19
2022-11-13T16:59:18.373Z,100866.34
2022-11-13T17:02:13.281Z,100867.47
2022-11-13T17:04:59.408Z,100824.19
2022-11-13T17:07:46.236Z,100873.34
2022-11-13T17:10:33.501Z,100866.47
2022-11-13T17:13:19.720Z,100809.50
2022-11-13T17:16:05.959Z,100858.66
2022-11-13T17:18:55.912Z,100856.53
2022-11-13T17:21:44.469Z,100862.69
2022-11-13T17:24:31.007Z,100884.94
2022-11-13T17:27:18.417Z,100884.13
2022-11-13T17:30:05.589Z,100882.56
2022-11-13T17:32:51.887Z,100884.78
2022-11-13T17:35:38.689Z,100854.50
2022-11-13T17:38:26.396Z,100895.38
2022-11-13T17:41:13.273Z,100895.13
2022-11-13T17:44:01.526Z,100860.03
2022-11-13T17:46:48.569Z,100872.50
2022-11-13T17:49:34.950Z,100906.06
2022-11-13T17:52:21.421Z,100898.47
2022-11-13T17:55:10.801Z,100900.38
2022-11-13T17:58:00.761Z,100859.41
2022-11-13T18:00:47.069Z,100891.25
2022-11-13T18:03:33.882Z,100880.09
2022-11-13T18:06:22.929Z,100916.94
2022-11-13T18:09:10.725Z,100921.59
2022-11-13T18:11:56.571Z,100922.72
2022-11-13T18:14:43.903Z,100885.13
2022-11-13T18:17:30.527Z,100885.56
2022-11-13T18:20:17.039Z,100897.53
2022-11-13T18:23:03.421Z,100900.78
2022-11-13T18:25:50.076Z,100923.53
2022-11-13T18:28:36.898Z,100920.28
2022-11-13T18:31:23.824Z,100920.78
2022-11-13T18:34:13.141Z,100918.09
2022-11-13T18:36:59.937Z,100934.16
2022-11-13T18:39:46.035Z,100924.09
2022-11-13T18:42:32.312Z,100924.03
2022-11-13T18:45:18.565Z,100817.66
2022-11-13T18:48:05.223Z,100907.69
2022-11-13T18:50:57.618Z,100869.78
2022-11-13T18:53:45.767Z,100915.22
2022-11-13T18:56:35.127Z,100907.69
2022-11-13T18:59:21.309Z,100904.44
2022-11-13T19:02:09.371Z,100916.63
2022-11-13T19:04:56.054Z,100933.03
2022-11-13T19:07:44.404Z,100925.16
2022-11-13T19:10:33.667Z,100888.91
2022-11-13T19:13:19.940Z,100917.69
2022-11-13T19:16:14.938Z,100909.84
2022-11-13T19:19:05.278Z,100933.66
2022-11-13T19:21:52.360Z,100886.56
2022-11-13T19:24:39.189Z,100910.91
2022-11-13T19:27:25.575Z,100892.84
2022-11-13T19:30:14.327Z,100916.97
2022-11-13T19:33:00.801Z,100922.03
2022-11-13T19:35:47.148Z,100940.25
2022-11-13T19:38:33.310Z,100899.53
2022-11-13T19:41:19.441Z,100905.44
2022-11-13T19:44:06.666Z,100895.25
2022-11-13T19:46:53.565Z,100887.88
2022-11-13T19:49:39.911Z,100859.19
2022-11-13T19:52:25.967Z,100892.84
2022-11-13T19:55:12.319Z,100920.53
2022-11-13T19:57:58.319Z,100924.69
2022-11-13T20:00:45.287Z,100908.47
2022-11-13T20:03:31.759Z,100881.28
2022-11-13T20:06:22.297Z,100924.03
2022-11-13T20:09:08.707Z,100907.84
2022-11-13T20:11:55.483Z,100875.94
2022-11-13T20:14:41.887Z,100923.53
2022-11-13T20:17:28.058Z,100885.75
2022-11-13T20:20:14.748Z,100898.72
2022-11-13T20:23:01.224Z,100915.56
2022-11-13T20:25:56.398Z,100913.13
2022-11-13T20:28:43.044Z,100866.88
2022-11-13T20:31:31.194Z,100918.50
2022-11-13T20:34:18.056Z,100907.66
2022-11-13T20:37:04.486Z,100891.13
2022-11-13T20:39:50.684Z,100910.28
2022-11-13T20:42:37.954Z,100883.00
2022-11-13T20:45:24.409Z,100924.50
2022-11-13T20:48:10.779Z,100883.22
2022-11-13T20:51:04.687Z,100899.66
2022-11-13T20:53:51.711Z,100892.16
2022-11-13T20:56:37.926Z,100905.94
2022-11-13T20:59:24.198Z,100881.09
2022-11-13T21:02:10.760Z,100904.81
2022-11-13T21:04:59.238Z,100915.19
2022-11-13T21:07:45.323Z,100906.25
2022-11-13T21:10:33.485Z,100908.91
2022-11-13T21:13:19.921Z,100867.31
2022-11-13T21:16:09.019Z,100912.13
2022-11-13T21:18:59.585Z,100904.75
2022-11-13T21:21:45.609Z,100892.56
2022-11-13T21:24:33.371Z,100870.97
2022-11-13T21:27:19.774Z,100891.47
2022-11-13T21:30:06.506Z,100885.50
2022-11-13T21:32:52.614Z,100858.72
2022-11-13T21:35:38.821Z,100898.53
2022-11-13T21:38:25.188Z,100895.31
2022-11-13T21:41:23.814Z,100900.78
2022-11-13T21:44:11.007Z,100889.03
2022-11-13T21:46:57.388Z,100875.00
2022-11-13T21:49:43.849Z,100870.34
2022-11-13T21:52:31.149Z,100866.53
2022-11-13T21:55:17.411Z,100897.16
2022-11-13T21:58:03.531Z,100876.34
2022-11-13T22:00:50.088Z,100896.94
2022-11-13T22:03:36.772Z,100860.41
2022-11-13T22:06:36.267Z,100889.91
2022-11-13T22:09:25.495Z,100887.19
2022-11-13T22:12:13.420Z,100858.50
2022-11-13T22:14:59.925Z,100865.00
2022-11-13T22:17:48.831Z,100888.41
2022-11-13T22:20:35.035Z,100889.84
2022-11-13T22:23:21.929Z,100848.09
2022-11-13T22:26:14.169Z,100874.56
2022-11-13T22:29:01.046Z,100880.22
2022-11-13T22:31:48.275Z,100854.56
2022-11-13T22:34:34.471Z,100791.56
2022-11-13T22:37:21.052Z,100878.09
2022-11-13T22:40:07.811Z,100883.56
2022-11-13T22:42:56.866Z,100853.56
2022-11-13T22:45:43.650Z,100842.47
2022-11-13T22:48:30.645Z,100878.47
2022-11-13T22:51:34.821Z,100845.94
2022-11-13T22:54:22.015Z,100843.72
2022-11-13T22:57:09.144Z,100830.25
2022-11-13T22:59:55.630Z,100832.38
2022-11-13T23:02:46.927Z,100858.03
2022-11-13T23:05:36.411Z,100859.34
2022-11-13T23:08:23.413Z,100845.75
2022-11-13T23:11:15.502Z,100825.81
2022-11-13T23:14:04.571Z,100832.09
2022-11-13T23:16:50.957Z,100804.53
2022-11-13T23:19:37.501Z,100811.81
2022-11-13T23:22:24.298Z,100851.53
2022-11-13T23:25:11.657Z,100822.53
2022-11-13T23:27:58.071Z,100811.72
2022-11-13T23:30:44.496Z,100773.31
2022-11-13T23:33:31.307Z,100807.88
2022-11-13T23:36:18.439Z,100783.56
2022-11-13T23:39:04.456Z,100839.78
2022-11-13T23:41:50.893Z,100832.72
2022-11-13T23:44:37.261Z,100821.66
2022-11-13T23:47:23.412Z,100781.63
2022-11-13T23:50:10.914Z,100793.78
2022-11-13T23:52:58.141Z,100822.97
2022-11-13T23:55:45.244Z,100815.88
2022-11-13T23:58:32.587Z,100802.34
